sensor_id;sensor_type;location;lat;lon;timestamp;temperature;humidity
12704;DHT22;6416;52.182;7.650;2023-05-20T00:00:00;18.70;41.70
12704;DHT22;6416;52.182;7.650;2023-05-20T00:02:25;18.60;41.70
12704;DHT22;6416;52.182;7.650;2023-05-20T00:04:51;18.70;41.90
12704;DHT22;6416;52.182;7.650;2023-05-20T00:07:16;18.60;41.90
12704;DHT22;6416;52.182;7.650;2023-05-20T00:09:42;18.60;42.10
12704;DHT22;6416;52.182;7.650;2023-05-20T00:12:07;18.50;42.10
12704;DHT22;6416;52.182;7.650;2023-05-20T00:14:33;18.50;42.20
12704;DHT22;6416;52.182;7.650;2023-05-20T00:16:58;18.50;42.30
12704;DHT22;6416;52.182;7.650;2023-05-20T00:19:24;18.40;42.20
12704;DHT22;6416;52.182;7.650;2023-05-20T00:21:49;18.40;42.40
12704;DHT22;6416;52.182;7.650;2023-05-20T00:24:14;18.40;42.40
12704;DHT22;6416;52.182;7.650;2023-05-20T00:26:40;18.30;42.60
12704;DHT22;6416;52.182;7.650;2023-05-20T00:29:05;18.30;42.70
12704;DHT22;6416;52.182;7.650;2023-05-20T00:31:31;18.20;42.70
12704;DHT22;6416;52.182;7.650;2023-05-20T00:33:56;18.10;42.70
12704;DHT22;6416;52.182;7.650;2023-05-20T00:36:22;18.10;42.80
12704;DHT22;6416;52.182;7.650;2023-05-20T00:38:47;18.00;42.90
12704;DHT22;6416;52.182;7.650;2023-05-20T00:41:13;18.00;43.10
12704;DHT22;6416;52.182;7.650;2023-05-20T00:43:38;17.90;43.10
12704;DHT22;6416;52.182;7.650;2023-05-20T00:46:04;17.80;43.20
12704;DHT22;6416;52.182;7.650;2023-05-20T00:48:35;17.80;43.30
12704;DHT22;6416;52.182;7.650;2023-05-20T00:51:03;17.70;43.70
12704;DHT22;6416;52.182;7.650;2023-05-20T00:53:29;17.60;43.30
12704;DHT22;6416;52.182;7.650;2023-05-20T00:55:55;17.50;43.60
12704;DHT22;6416;52.182;7.650;2023-05-20T00:58:20;17.50;43.60
12704;DHT22;6416;52.182;7.650;2023-05-20T01:00:46;17.40;43.70
12704;DHT22;6416;52.182;7.650;2023-05-20T01:03:11;17.40;43.80
12704;DHT22;6416;52.182;7.650;2023-05-20T01:05:37;17.30;43.80
12704;DHT22;6416;52.182;7.650;2023-05-20T01:08:02;17.30;44.20
12704;DHT22;6416;52.182;7.650;2023-05-20T01:10:29;17.20;44.20
12704;DHT22;6416;52.182;7.650;2023-05-20T01:12:58;17.10;44.30
12704;DHT22;6416;52.182;7.650;2023-05-20T01:15:26;17.10;44.50
12704;DHT22;6416;52.182;7.650;2023-05-20T01:18:00;17.00;44.50
12704;DHT22;6416;52.182;7.650;2023-05-20T01:20:27;17.00;46.10
12704;DHT22;6416;52.182;7.650;2023-05-20T01:22:55;16.90;44.70
12704;DHT22;6416;52.182;7.650;2023-05-20T01:25:21;16.90;44.90
12704;DHT22;6416;52.182;7.650;2023-05-20T01:27:47;16.90;44.90
12704;DHT22;6416;52.182;7.650;2023-05-20T01:30:14;16.80;45.20
12704;DHT22;6416;52.182;7.650;2023-05-20T01:32:45;16.80;45.10
12704;DHT22;6416;52.182;7.650;2023-05-20T01:35:13;16.70;45.40
12704;DHT22;6416;52.182;7.650;2023-05-20T01:37:39;16.70;45.40
12704;DHT22;6416;52.182;7.650;2023-05-20T01:40:07;16.60;45.40
12704;DHT22;6416;52.182;7.650;2023-05-20T01:42:33;16.60;45.60
12704;DHT22;6416;52.182;7.650;2023-05-20T01:44:59;16.60;45.70
12704;DHT22;6416;52.182;7.650;2023-05-20T01:47:25;16.50;45.70
12704;DHT22;6416;52.182;7.650;2023-05-20T01:49:50;16.50;45.70
12704;DHT22;6416;52.182;7.650;2023-05-20T01:52:16;16.50;45.80
12704;DHT22;6416;52.182;7.650;2023-05-20T01:54:41;16.40;45.90
12704;DHT22;6416;52.182;7.650;2023-05-20T01:57:07;16.50;46.00
12704;DHT22;6416;52.182;7.650;2023-05-20T01:59:32;16.40;46.00
12704;DHT22;6416;52.182;7.650;2023-05-20T02:01:57;16.30;46.00
12704;DHT22;6416;52.182;7.650;2023-05-20T02:04:23;16.30;46.10
12704;DHT22;6416;52.182;7.650;2023-05-20T02:06:48;16.30;46.20
12704;DHT22;6416;52.182;7.650;2023-05-20T02:09:14;16.20;46.20
12704;DHT22;6416;52.182;7.650;2023-05-20T02:11:42;16.20;46.30
12704;DHT22;6416;52.182;7.650;2023-05-20T02:14:08;16.20;46.40
12704;DHT22;6416;52.182;7.650;2023-05-20T02:16:33;16.20;46.80
12704;DHT22;6416;52.182;7.650;2023-05-20T02:18:59;16.10;46.50
12704;DHT22;6416;52.182;7.650;2023-05-20T02:21:25;16.10;46.70
12704;DHT22;6416;52.182;7.650;2023-05-20T02:23:50;16.10;46.80
12704;DHT22;6416;52.182;7.650;2023-05-20T02:26:16;16.10;47.10
12704;DHT22;6416;52.182;7.650;2023-05-20T02:28:41;16.00;46.90
12704;DHT22;6416;52.182;7.650;2023-05-20T02:31:07;16.00;47.00
12704;DHT22;6416;52.182;7.650;2023-05-20T02:33:32;15.90;47.00
12704;DHT22;6416;52.182;7.650;2023-05-20T02:35:57;15.90;47.00
12704;DHT22;6416;52.182;7.650;2023-05-20T02:38:23;15.90;47.10
12704;DHT22;6416;52.182;7.650;2023-05-20T02:40:48;15.90;47.20
12704;DHT22;6416;52.182;7.650;2023-05-20T02:43:14;15.80;47.20
12704;DHT22;6416;52.182;7.650;2023-05-20T02:45:39;15.90;47.40
12704;DHT22;6416;52.182;7.650;2023-05-20T02:48:05;15.80;47.40
12704;DHT22;6416;52.182;7.650;2023-05-20T02:50:30;15.70;47.30
12704;DHT22;6416;52.182;7.650;2023-05-20T02:52:56;15.70;47.40
12704;DHT22;6416;52.182;7.650;2023-05-20T02:55:21;15.70;47.50
12704;DHT22;6416;52.182;7.650;2023-05-20T02:57:47;15.70;47.70
12704;DHT22;6416;52.182;7.650;2023-05-20T03:00:12;15.70;47.80
12704;DHT22;6416;52.182;7.650;2023-05-20T03:02:38;15.60;47.80
12704;DHT22;6416;52.182;7.650;2023-05-20T03:05:04;15.60;47.80
12704;DHT22;6416;52.182;7.650;2023-05-20T03:07:30;15.60;48.00
12704;DHT22;6416;52.182;7.650;2023-05-20T03:09:56;15.60;48.80
12704;DHT22;6416;52.182;7.650;2023-05-20T03:12:21;15.50;48.00
12704;DHT22;6416;52.182;7.650;2023-05-20T03:14:47;15.60;48.30
12704;DHT22;6416;52.182;7.650;2023-05-20T03:17:12;15.50;48.20
12704;DHT22;6416;52.182;7.650;2023-05-20T03:19:38;15.50;48.20
12704;DHT22;6416;52.182;7.650;2023-05-20T03:22:03;15.50;48.30
12704;DHT22;6416;52.182;7.650;2023-05-20T03:24:29;15.40;48.30
12704;DHT22;6416;52.182;7.650;2023-05-20T03:26:54;15.40;48.60
12704;DHT22;6416;52.182;7.650;2023-05-20T03:29:21;15.40;49.30
12704;DHT22;6416;52.182;7.650;2023-05-20T03:31:47;15.40;48.70
12704;DHT22;6416;52.182;7.650;2023-05-20T03:34:12;15.40;48.60
12704;DHT22;6416;52.182;7.650;2023-05-20T03:36:38;15.30;49.40
12704;DHT22;6416;52.182;7.650;2023-05-20T03:39:03;15.30;48.80
12704;DHT22;6416;52.182;7.650;2023-05-20T03:41:29;15.30;48.80
12704;DHT22;6416;52.182;7.650;2023-05-20T03:43:54;15.30;48.80
12704;DHT22;6416;52.182;7.650;2023-05-20T03:46:20;15.30;48.90
12704;DHT22;6416;52.182;7.650;2023-05-20T03:48:45;15.20;49.00
12704;DHT22;6416;52.182;7.650;2023-05-20T03:51:14;15.20;49.00
12704;DHT22;6416;52.182;7.650;2023-05-20T03:53:39;15.20;49.40
12704;DHT22;6416;52.182;7.650;2023-05-20T03:56:05;15.20;49.20
12704;DHT22;6416;52.182;7.650;2023-05-20T03:58:30;15.20;49.30
12704;DHT22;6416;52.182;7.650;2023-05-20T04:03:24;15.20;49.40
12704;DHT22;6416;52.182;7.650;2023-05-20T04:05:49;15.20;49.50
12704;DHT22;6416;52.182;7.650;2023-05-20T04:08:15;15.20;49.60
12704;DHT22;6416;52.182;7.650;2023-05-20T04:10:41;15.20;49.60
12704;DHT22;6416;52.182;7.650;2023-05-20T04:13:06;15.20;49.60
12704;DHT22;6416;52.182;7.650;2023-05-20T04:15:34;15.20;49.70
12704;DHT22;6416;52.182;7.650;2023-05-20T04:18:00;15.20;49.90
12704;DHT22;6416;52.182;7.650;2023-05-20T04:20:25;15.30;49.80
12704;DHT22;6416;52.182;7.650;2023-05-20T04:22:51;15.30;49.80
12704;DHT22;6416;52.182;7.650;2023-05-20T04:25:17;15.30;49.80
12704;DHT22;6416;52.182;7.650;2023-05-20T04:27:42;15.40;50.00
12704;DHT22;6416;52.182;7.650;2023-05-20T04:30:08;15.50;50.20
12704;DHT22;6416;52.182;7.650;2023-05-20T04:32:33;15.60;50.30
12704;DHT22;6416;52.182;7.650;2023-05-20T04:34:59;15.60;50.40
12704;DHT22;6416;52.182;7.650;2023-05-20T04:37:25;15.80;50.40
12704;DHT22;6416;52.182;7.650;2023-05-20T04:39:50;16.00;50.50
12704;DHT22;6416;52.182;7.650;2023-05-20T04:42:15;16.20;50.50
12704;DHT22;6416;52.182;7.650;2023-05-20T04:44:41;16.40;50.50
12704;DHT22;6416;52.182;7.650;2023-05-20T04:47:06;16.50;50.30
12704;DHT22;6416;52.182;7.650;2023-05-20T04:49:32;16.70;50.00
12704;DHT22;6416;52.182;7.650;2023-05-20T04:51:58;16.90;49.90
12704;DHT22;6416;52.182;7.650;2023-05-20T04:54:23;17.10;49.70
12704;DHT22;6416;52.182;7.650;2023-05-20T04:56:48;17.30;49.60
12704;DHT22;6416;52.182;7.650;2023-05-20T04:59:14;17.50;49.50
12704;DHT22;6416;52.182;7.650;2023-05-20T05:01:39;17.70;49.40
12704;DHT22;6416;52.182;7.650;2023-05-20T05:04:05;17.90;49.30
12704;DHT22;6416;52.182;7.650;2023-05-20T05:06:30;18.10;49.30
12704;DHT22;6416;52.182;7.650;2023-05-20T05:08:56;18.30;49.80
12704;DHT22;6416;52.182;7.650;2023-05-20T05:11:21;18.50;49.00
12704;DHT22;6416;52.182;7.650;2023-05-20T05:13:47;18.70;48.70
12704;DHT22;6416;52.182;7.650;2023-05-20T05:16:12;18.90;48.50
12704;DHT22;6416;52.182;7.650;2023-05-20T05:18:38;19.10;48.30
12704;DHT22;6416;52.182;7.650;2023-05-20T05:21:04;19.30;48.10
12704;DHT22;6416;52.182;7.650;2023-05-20T05:23:30;19.50;47.90
12704;DHT22;6416;52.182;7.650;2023-05-20T05:25:59;19.70;47.80
12704;DHT22;6416;52.182;7.650;2023-05-20T05:28:25;19.90;47.70
12704;DHT22;6416;52.182;7.650;2023-05-20T05:30:53;20.10;47.40
12704;DHT22;6416;52.182;7.650;2023-05-20T05:33:19;20.30;47.30
12704;DHT22;6416;52.182;7.650;2023-05-20T05:35:44;20.50;46.90
12704;DHT22;6416;52.182;7.650;2023-05-20T05:38:10;20.70;46.80
12704;DHT22;6416;52.182;7.650;2023-05-20T05:40:35;20.80;46.50
12704;DHT22;6416;52.182;7.650;2023-05-20T05:43:00;21.00;46.50
12704;DHT22;6416;52.182;7.650;2023-05-20T05:45:26;21.20;46.30
12704;DHT22;6416;52.182;7.650;2023-05-20T05:47:51;21.40;46.30
12704;DHT22;6416;52.182;7.650;2023-05-20T05:50:17;21.50;46.00
12704;DHT22;6416;52.182;7.650;2023-05-20T05:52:42;21.70;45.90
12704;DHT22;6416;52.182;7.650;2023-05-20T05:55:09;21.90;45.90
12704;DHT22;6416;52.182;7.650;2023-05-20T05:57:35;22.10;45.70
12704;DHT22;6416;52.182;7.650;2023-05-20T06:00:00;22.30;45.40
12704;DHT22;6416;52.182;7.650;2023-05-20T06:02:26;22.50;45.20
12704;DHT22;6416;52.182;7.650;2023-05-20T06:04:51;22.70;44.60
12704;DHT22;6416;52.182;7.650;2023-05-20T06:07:17;22.90;44.70
12704;DHT22;6416;52.182;7.650;2023-05-20T06:09:42;23.10;44.50
12704;DHT22;6416;52.182;7.650;2023-05-20T06:12:08;23.20;44.10
12704;DHT22;6416;52.182;7.650;2023-05-20T06:14:33;23.40;44.10
12704;DHT22;6416;52.182;7.650;2023-05-20T06:16:59;23.60;44.20
12704;DHT22;6416;52.182;7.650;2023-05-20T06:19:24;23.80;44.10
12704;DHT22;6416;52.182;7.650;2023-05-20T06:21:50;24.00;43.70
12704;DHT22;6416;52.182;7.650;2023-05-20T06:24:15;24.20;43.30
12704;DHT22;6416;52.182;7.650;2023-05-20T06:26:41;24.40;43.00
12704;DHT22;6416;52.182;7.650;2023-05-20T06:29:06;24.60;42.80
12704;DHT22;6416;52.182;7.650;2023-05-20T06:31:32;24.80;42.50
12704;DHT22;6416;52.182;7.650;2023-05-20T06:33:57;25.00;42.90
12704;DHT22;6416;52.182;7.650;2023-05-20T06:36:23;25.20;42.90
12704;DHT22;6416;52.182;7.650;2023-05-20T06:38:48;25.40;42.50
12704;DHT22;6416;52.182;7.650;2023-05-20T06:41:14;25.70;42.50
12704;DHT22;6416;52.182;7.650;2023-05-20T06:43:39;25.90;42.10
12704;DHT22;6416;52.182;7.650;2023-05-20T06:46:05;26.20;41.70
12704;DHT22;6416;52.182;7.650;2023-05-20T06:48:31;26.40;41.20
12704;DHT22;6416;52.182;7.650;2023-05-20T06:50:56;26.60;40.60
12704;DHT22;6416;52.182;7.650;2023-05-20T06:53:22;26.70;40.50
12704;DHT22;6416;52.182;7.650;2023-05-20T06:55:47;26.90;40.20
12704;DHT22;6416;52.182;7.650;2023-05-20T06:58:13;27.10;40.40
12704;DHT22;6416;52.182;7.650;2023-05-20T07:00:38;27.40;40.20
12704;DHT22;6416;52.182;7.650;2023-05-20T07:03:04;27.50;39.70
12704;DHT22;6416;52.182;7.650;2023-05-20T07:05:29;27.80;39.10
12704;DHT22;6416;52.182;7.650;2023-05-20T07:07:55;27.90;38.50
12704;DHT22;6416;52.182;7.650;2023-05-20T07:10:20;28.10;38.30
12704;DHT22;6416;52.182;7.650;2023-05-20T07:12:46;28.20;38.30
12704;DHT22;6416;52.182;7.650;2023-05-20T07:15:11;28.40;38.20
12704;DHT22;6416;52.182;7.650;2023-05-20T07:17:37;28.50;37.10
12704;DHT22;6416;52.182;7.650;2023-05-20T07:20:02;28.60;36.30
12704;DHT22;6416;52.182;7.650;2023-05-20T07:22:28;28.60;36.00
12704;DHT22;6416;52.182;7.650;2023-05-20T07:24:53;28.60;35.90
12704;DHT22;6416;52.182;7.650;2023-05-20T07:27:19;28.60;35.80
12704;DHT22;6416;52.182;7.650;2023-05-20T07:29:44;28.60;36.10
12704;DHT22;6416;52.182;7.650;2023-05-20T07:32:10;28.60;35.70
12704;DHT22;6416;52.182;7.650;2023-05-20T07:34:35;28.60;34.90
12704;DHT22;6416;52.182;7.650;2023-05-20T07:37:01;28.60;35.20
12704;DHT22;6416;52.182;7.650;2023-05-20T07:39:26;28.60;35.10
12704;DHT22;6416;52.182;7.650;2023-05-20T07:41:52;28.70;35.40
12704;DHT22;6416;52.182;7.650;2023-05-20T07:44:17;28.70;34.70
12704;DHT22;6416;52.182;7.650;2023-05-20T07:46:43;28.80;34.60
12704;DHT22;6416;52.182;7.650;2023-05-20T07:49:09;28.90;35.20
12704;DHT22;6416;52.182;7.650;2023-05-20T07:51:34;29.10;35.30
12704;DHT22;6416;52.182;7.650;2023-05-20T07:54:00;29.20;35.30
12704;DHT22;6416;52.182;7.650;2023-05-20T07:56:25;29.50;34.90
12704;DHT22;6416;52.182;7.650;2023-05-20T07:58:56;29.60;34.40
12704;DHT22;6416;52.182;7.650;2023-05-20T08:01:21;29.70;33.10
12704;DHT22;6416;52.182;7.650;2023-05-20T08:03:47;29.60;33.10
12704;DHT22;6416;52.182;7.650;2023-05-20T08:06:12;29.50;32.90
12704;DHT22;6416;52.182;7.650;2023-05-20T08:08:38;29.30;33.00
12704;DHT22;6416;52.182;7.650;2023-05-20T08:11:03;29.20;33.20
12704;DHT22;6416;52.182;7.650;2023-05-20T08:13:29;29.10;33.50
12704;DHT22;6416;52.182;7.650;2023-05-20T08:15:55;29.10;33.60
12704;DHT22;6416;52.182;7.650;2023-05-20T08:18:21;29.20;34.00
12704;DHT22;6416;52.182;7.650;2023-05-20T08:20:46;29.40;35.10
12704;DHT22;6416;52.182;7.650;2023-05-20T08:23:12;29.70;35.10
12704;DHT22;6416;52.182;7.650;2023-05-20T08:25:37;30.00;34.60
12704;DHT22;6416;52.182;7.650;2023-05-20T08:28:03;30.40;34.50
12704;DHT22;6416;52.182;7.650;2023-05-20T08:30:29;30.70;34.00
12704;DHT22;6416;52.182;7.650;2023-05-20T08:32:55;31.00;33.10
12704;DHT22;6416;52.182;7.650;2023-05-20T08:35:20;31.20;32.80
12704;DHT22;6416;52.182;7.650;2023-05-20T08:37:46;31.30;31.60
12704;DHT22;6416;52.182;7.650;2023-05-20T08:40:12;31.30;30.70
12704;DHT22;6416;52.182;7.650;2023-05-20T08:42:41;31.30;31.20
12704;DHT22;6416;52.182;7.650;2023-05-20T08:45:09;31.40;31.50
12704;DHT22;6416;52.182;7.650;2023-05-20T08:47:35;31.40;31.10
12704;DHT22;6416;52.182;7.650;2023-05-20T08:50:01;31.50;30.70
12704;DHT22;6416;52.182;7.650;2023-05-20T08:52:27;31.50;30.60
12704;DHT22;6416;52.182;7.650;2023-05-20T08:54:53;31.50;30.60
12704;DHT22;6416;52.182;7.650;2023-05-20T08:57:20;31.60;30.60
12704;DHT22;6416;52.182;7.650;2023-05-20T08:59:46;31.60;30.60
12704;DHT22;6416;52.182;7.650;2023-05-20T09:02:12;31.70;30.40
12704;DHT22;6416;52.182;7.650;2023-05-20T09:04:38;31.70;30.10
12704;DHT22;6416;52.182;7.650;2023-05-20T09:07:04;31.80;30.00
12704;DHT22;6416;52.182;7.650;2023-05-20T09:09:31;31.90;30.70
12704;DHT22;6416;52.182;7.650;2023-05-20T09:11:56;32.00;30.50
12704;DHT22;6416;52.182;7.650;2023-05-20T09:14:22;32.10;30.20
12704;DHT22;6416;52.182;7.650;2023-05-20T09:16:49;32.30;30.60
12704;DHT22;6416;52.182;7.650;2023-05-20T09:19:14;32.50;30.50
12704;DHT22;6416;52.182;7.650;2023-05-20T09:21:40;32.70;29.90
12704;DHT22;6416;52.182;7.650;2023-05-20T09:24:06;32.90;30.00
12704;DHT22;6416;52.182;7.650;2023-05-20T09:26:31;33.10;29.70
12704;DHT22;6416;52.182;7.650;2023-05-20T09:28:58;33.20;29.00
12704;DHT22;6416;52.182;7.650;2023-05-20T09:31:30;33.30;29.30
12704;DHT22;6416;52.182;7.650;2023-05-20T09:33:56;33.40;29.10
12704;DHT22;6416;52.182;7.650;2023-05-20T09:36:22;33.60;29.90
12704;DHT22;6416;52.182;7.650;2023-05-20T09:38:51;33.90;29.50
12704;DHT22;6416;52.182;7.650;2023-05-20T09:41:17;34.10;29.20
12704;DHT22;6416;52.182;7.650;2023-05-20T09:43:43;34.30;29.10
12704;DHT22;6416;52.182;7.650;2023-05-20T09:46:09;34.50;28.70
12704;DHT22;6416;52.182;7.650;2023-05-20T09:48:35;34.60;28.40
12704;DHT22;6416;52.182;7.650;2023-05-20T09:51:02;34.70;28.50
12704;DHT22;6416;52.182;7.650;2023-05-20T09:53:28;34.80;28.70
12704;DHT22;6416;52.182;7.650;2023-05-20T09:55:54;34.80;28.20
12704;DHT22;6416;52.182;7.650;2023-05-20T09:58:24;34.80;27.90
12704;DHT22;6416;52.182;7.650;2023-05-20T10:00:50;34.80;27.80
12704;DHT22;6416;52.182;7.650;2023-05-20T10:05:51;34.80;28.50
12704;DHT22;6416;52.182;7.650;2023-05-20T10:11:50;34.70;27.30
12704;DHT22;6416;52.182;7.650;2023-05-20T10:19:46;35.20;28.20
12704;DHT22;6416;52.182;7.650;2023-05-20T10:22:11;35.50;27.70
12704;DHT22;6416;52.182;7.650;2023-05-20T10:24:38;35.60;27.40
12704;DHT22;6416;52.182;7.650;2023-05-20T10:27:08;35.80;27.40
12704;DHT22;6416;52.182;7.650;2023-05-20T10:29:50;35.80;27.20
12704;DHT22;6416;52.182;7.650;2023-05-20T10:34:50;35.90;27.10
12704;DHT22;6416;52.182;7.650;2023-05-20T10:37:26;36.00;27.00
12704;DHT22;6416;52.182;7.650;2023-05-20T10:40:01;36.20;26.60
12704;DHT22;6416;52.182;7.650;2023-05-20T10:42:27;36.40;27.00
12704;DHT22;6416;52.182;7.650;2023-05-20T10:44:53;36.60;26.60
12704;DHT22;6416;52.182;7.650;2023-05-20T10:47:19;36.70;26.50
12704;DHT22;6416;52.182;7.650;2023-05-20T10:49:45;36.80;26.50
12704;DHT22;6416;52.182;7.650;2023-05-20T10:52:10;37.00;26.40
12704;DHT22;6416;52.182;7.650;2023-05-20T10:54:43;37.20;26.50
12704;DHT22;6416;52.182;7.650;2023-05-20T10:57:09;37.30;25.40
12704;DHT22;6416;52.182;7.650;2023-05-20T10:59:35;37.30;25.20
12704;DHT22;6416;52.182;7.650;2023-05-20T11:02:01;37.20;25.20
12704;DHT22;6416;52.182;7.650;2023-05-20T11:04:28;37.10;25.20
12704;DHT22;6416;52.182;7.650;2023-05-20T11:06:54;37.10;25.20
12704;DHT22;6416;52.182;7.650;2023-05-20T11:09:19;36.90;25.10
12704;DHT22;6416;52.182;7.650;2023-05-20T11:11:45;36.80;24.90
12704;DHT22;6416;52.182;7.650;2023-05-20T11:14:11;36.70;25.20
12704;DHT22;6416;52.182;7.650;2023-05-20T11:16:36;36.60;25.10
12704;DHT22;6416;52.182;7.650;2023-05-20T11:19:02;36.30;25.00
12704;DHT22;6416;52.182;7.650;2023-05-20T11:21:27;36.20;24.80
12704;DHT22;6416;52.182;7.650;2023-05-20T11:23:53;36.10;25.20
12704;DHT22;6416;52.182;7.650;2023-05-20T11:26:19;36.10;25.50
12704;DHT22;6416;52.182;7.650;2023-05-20T11:28:45;36.10;25.60
12704;DHT22;6416;52.182;7.650;2023-05-20T11:31:10;36.10;25.30
12704;DHT22;6416;52.182;7.650;2023-05-20T11:33:40;36.00;25.20
12704;DHT22;6416;52.182;7.650;2023-05-20T11:36:08;35.80;24.80
12704;DHT22;6416;52.182;7.650;2023-05-20T11:38:34;35.80;25.40
12704;DHT22;6416;52.182;7.650;2023-05-20T11:40:59;35.80;25.30
12704;DHT22;6416;52.182;7.650;2023-05-20T11:43:25;35.80;25.60
12704;DHT22;6416;52.182;7.650;2023-05-20T11:45:55;35.80;25.50
12704;DHT22;6416;52.182;7.650;2023-05-20T11:48:21;35.80;24.90
12704;DHT22;6416;52.182;7.650;2023-05-20T11:50:47;35.60;24.80
12704;DHT22;6416;52.182;7.650;2023-05-20T11:53:16;35.40;24.80
12704;DHT22;6416;52.182;7.650;2023-05-20T11:55:50;35.30;25.10
12704;DHT22;6416;52.182;7.650;2023-05-20T11:58:21;35.40;25.60
12704;DHT22;6416;52.182;7.650;2023-05-20T12:00:47;35.50;25.40
12704;DHT22;6416;52.182;7.650;2023-05-20T12:03:13;35.50;25.30
12704;DHT22;6416;52.182;7.650;2023-05-20T12:05:39;35.30;24.90
12704;DHT22;6416;52.182;7.650;2023-05-20T12:08:05;35.10;24.90
12704;DHT22;6416;52.182;7.650;2023-05-20T12:10:31;35.10;25.10
12704;DHT22;6416;52.182;7.650;2023-05-20T12:12:57;34.80;24.90
12704;DHT22;6416;52.182;7.650;2023-05-20T12:15:22;34.60;24.80
12704;DHT22;6416;52.182;7.650;2023-05-20T12:17:50;34.30;24.80
12704;DHT22;6416;52.182;7.650;2023-05-20T12:20:17;34.00;25.20
12704;DHT22;6416;52.182;7.650;2023-05-20T12:22:44;33.80;25.20
12704;DHT22;6416;52.182;7.650;2023-05-20T12:25:13;33.40;25.30
12704;DHT22;6416;52.182;7.650;2023-05-20T12:27:40;33.10;25.20
12704;DHT22;6416;52.182;7.650;2023-05-20T12:30:06;32.80;25.40
12704;DHT22;6416;52.182;7.650;2023-05-20T12:32:32;32.50;25.70
12704;DHT22;6416;52.182;7.650;2023-05-20T12:34:57;32.30;25.80
12704;DHT22;6416;52.182;7.650;2023-05-20T12:37:23;32.10;25.90
12704;DHT22;6416;52.182;7.650;2023-05-20T12:39:48;31.80;26.10
12704;DHT22;6416;52.182;7.650;2023-05-20T12:42:14;31.50;26.20
12704;DHT22;6416;52.182;7.650;2023-05-20T12:44:39;31.40;26.60
12704;DHT22;6416;52.182;7.650;2023-05-20T12:47:05;31.30;26.80
12704;DHT22;6416;52.182;7.650;2023-05-20T12:49:30;31.30;27.00
12704;DHT22;6416;52.182;7.650;2023-05-20T12:51:56;31.10;26.90
12704;DHT22;6416;52.182;7.650;2023-05-20T12:54:21;31.00;26.80
12704;DHT22;6416;52.182;7.650;2023-05-20T12:56:47;30.90;27.00
12704;DHT22;6416;52.182;7.650;2023-05-20T12:59:14;30.70;27.10
12704;DHT22;6416;52.182;7.650;2023-05-20T13:01:39;30.60;27.10
12704;DHT22;6416;52.182;7.650;2023-05-20T13:04:05;30.10;28.30
12704;DHT22;6416;52.182;7.650;2023-05-20T13:06:32;30.00;27.90
12704;DHT22;6416;52.182;7.650;2023-05-20T13:08:58;29.80;27.90
12704;DHT22;6416;52.182;7.650;2023-05-20T13:11:23;29.60;27.90
12704;DHT22;6416;52.182;7.650;2023-05-20T13:13:49;29.50;28.10
12704;DHT22;6416;52.182;7.650;2023-05-20T13:16:14;29.30;28.20
12704;DHT22;6416;52.182;7.650;2023-05-20T13:18:40;29.30;28.50
12704;DHT22;6416;52.182;7.650;2023-05-20T13:21:05;29.20;28.50
12704;DHT22;6416;52.182;7.650;2023-05-20T13:23:31;29.20;28.60
12704;DHT22;6416;52.182;7.650;2023-05-20T13:25:56;29.10;28.70
12704;DHT22;6416;52.182;7.650;2023-05-20T13:28:22;29.00;28.90
12704;DHT22;6416;52.182;7.650;2023-05-20T13:30:47;29.00;29.20
12704;DHT22;6416;52.182;7.650;2023-05-20T13:33:12;29.00;29.20
12704;DHT22;6416;52.182;7.650;2023-05-20T13:35:38;28.90;29.20
12704;DHT22;6416;52.182;7.650;2023-05-20T13:38:03;28.90;29.50
12704;DHT22;6416;52.182;7.650;2023-05-20T13:40:29;28.80;29.30
12704;DHT22;6416;52.182;7.650;2023-05-20T13:42:55;28.70;29.30
12704;DHT22;6416;52.182;7.650;2023-05-20T13:45:20;28.80;29.70
12704;DHT22;6416;52.182;7.650;2023-05-20T13:47:46;28.80;29.60
12704;DHT22;6416;52.182;7.650;2023-05-20T13:50:11;28.80;29.50
12704;DHT22;6416;52.182;7.650;2023-05-20T13:52:37;28.80;29.50
12704;DHT22;6416;52.182;7.650;2023-05-20T13:55:02;28.80;29.50
12704;DHT22;6416;52.182;7.650;2023-05-20T13:57:28;28.80;29.60
12704;DHT22;6416;52.182;7.650;2023-05-20T13:59:53;28.80;29.70
12704;DHT22;6416;52.182;7.650;2023-05-20T14:02:19;28.70;29.60
12704;DHT22;6416;52.182;7.650;2023-05-20T14:04:44;28.60;29.60
12704;DHT22;6416;52.182;7.650;2023-05-20T14:07:10;28.60;29.80
12704;DHT22;6416;52.182;7.650;2023-05-20T14:09:35;28.50;29.70
12704;DHT22;6416;52.182;7.650;2023-05-20T14:12:01;28.50;29.80
12704;DHT22;6416;52.182;7.650;2023-05-20T14:14:26;28.40;29.70
12704;DHT22;6416;52.182;7.650;2023-05-20T14:16:52;28.30;29.90
12704;DHT22;6416;52.182;7.650;2023-05-20T14:19:17;28.20;30.00
12704;DHT22;6416;52.182;7.650;2023-05-20T14:21:43;28.10;30.10
12704;DHT22;6416;52.182;7.650;2023-05-20T14:24:08;28.00;30.30
12704;DHT22;6416;52.182;7.650;2023-05-20T14:26:34;27.90;30.40
12704;DHT22;6416;52.182;7.650;2023-05-20T14:28:59;27.80;30.50
12704;DHT22;6416;52.182;7.650;2023-05-20T14:31:25;27.80;31.00
12704;DHT22;6416;52.182;7.650;2023-05-20T14:33:51;27.70;31.10
12704;DHT22;6416;52.182;7.650;2023-05-20T14:36:17;27.60;31.20
12704;DHT22;6416;52.182;7.650;2023-05-20T14:38:42;27.50;31.30
12704;DHT22;6416;52.182;7.650;2023-05-20T14:41:07;27.40;31.20
12704;DHT22;6416;52.182;7.650;2023-05-20T14:43:33;27.40;31.30
12704;DHT22;6416;52.182;7.650;2023-05-20T14:45:59;27.30;31.60
12704;DHT22;6416;52.182;7.650;2023-05-20T14:48:24;27.40;31.80
12704;DHT22;6416;52.182;7.650;2023-05-20T14:50:50;27.40;31.80
12704;DHT22;6416;52.182;7.650;2023-05-20T14:53:16;27.30;31.80
12704;DHT22;6416;52.182;7.650;2023-05-20T14:55:41;27.20;31.70
12704;DHT22;6416;52.182;7.650;2023-05-20T14:58:07;27.20;31.80
12704;DHT22;6416;52.182;7.650;2023-05-20T15:00:32;27.20;32.00
12704;DHT22;6416;52.182;7.650;2023-05-20T15:02:58;27.10;32.10
12704;DHT22;6416;52.182;7.650;2023-05-20T15:05:23;27.10;32.10
12704;DHT22;6416;52.182;7.650;2023-05-20T15:07:49;27.10;32.20
12704;DHT22;6416;52.182;7.650;2023-05-20T15:10:15;27.00;32.30
12704;DHT22;6416;52.182;7.650;2023-05-20T15:12:40;26.90;32.40
12704;DHT22;6416;52.182;7.650;2023-05-20T15:15:07;26.80;32.50
12704;DHT22;6416;52.182;7.650;2023-05-20T15:17:36;26.70;32.50
12704;DHT22;6416;52.182;7.650;2023-05-20T15:20:02;26.60;32.70
12704;DHT22;6416;52.182;7.650;2023-05-20T15:22:28;26.60;33.00
12704;DHT22;6416;52.182;7.650;2023-05-20T15:24:53;26.50;33.30
12704;DHT22;6416;52.182;7.650;2023-05-20T15:27:19;26.50;33.40
12704;DHT22;6416;52.182;7.650;2023-05-20T15:29:44;26.50;33.40
12704;DHT22;6416;52.182;7.650;2023-05-20T15:32:10;26.50;33.50
12704;DHT22;6416;52.182;7.650;2023-05-20T15:34:35;26.60;33.90
12704;DHT22;6416;52.182;7.650;2023-05-20T15:37:01;26.60;33.90
12704;DHT22;6416;52.182;7.650;2023-05-20T15:39:26;26.60;33.90
12704;DHT22;6416;52.182;7.650;2023-05-20T15:41:51;26.60;33.80
12704;DHT22;6416;52.182;7.650;2023-05-20T15:44:17;26.50;33.80
12704;DHT22;6416;52.182;7.650;2023-05-20T15:46:44;26.50;33.90
12704;DHT22;6416;52.182;7.650;2023-05-20T15:49:10;26.50;34.00
12704;DHT22;6416;52.182;7.650;2023-05-20T15:51:36;26.50;34.40